Time;durP1;ratioP1;P1;durP2;ratioP2;P2;SDS_P1;SDS_P2;PMS_P1;PMS_P2;Temp;Humidity;BMP_temperature;BMP_pressure;BME280_temperature;BME280_humidity;BME280_pressure;Samples;Min_cycle;Max_cycle;Signal;HPM_P1;HPM_P2
2022/03/17 00:01:58;;;;;;;60.42;31.83;;;180.00;2252.80;;;;;;5049742;28;20041;-74
2022/03/17 00:04:24;;;;;;;54.75;34.22;;;180.00;2252.80;;;;;;5045794;28;20124;-74
2022/03/17 00:06:50;;;;;;;61.78;34.25;;;180.00;2252.80;;;;;;5045055;28;20073;-74
2022/03/17 00:09:16;;;;;;;61.30;33.80;;;180.00;2252.80;;;;;;5064350;28;20044;-75
2022/03/17 00:11:42;;;;;;;61.15;35.03;;;180.00;2252.80;;;;;;5033095;28;20498;-75
2022/03/17 00:14:08;;;;;;;60.22;35.10;;;180.00;2252.80;;;;;;5073631;28;20041;-75
2022/03/17 00:16:34;;;;;;;64.30;36.95;;;180.00;2252.80;;;;;;5053259;28;20549;-75
2022/03/17 00:19:03;;;;;;;60.58;36.95;;;180.00;2252.80;;;;;;5048962;28;20037;-75
2022/03/17 00:21:29;;;;;;;62.00;35.42;;;180.10;2252.80;;;;;;5038149;28;20044;-74
2022/03/17 00:23:54;;;;;;;64.30;37.72;;;180.10;2252.80;;;;;;5046436;28;20030;-74
2022/03/17 00:26:20;;;;;;;68.65;39.38;;;180.00;2252.80;;;;;;5039081;28;20056;-74
2022/03/17 00:28:46;;;;;;;56.35;34.42;;;180.00;2252.80;;;;;;5065284;28;20026;-75
2022/03/17 00:31:11;;;;;;;63.15;36.95;;;180.00;2252.80;;;;;;5036155;28;20111;-75
2022/03/17 00:33:37;;;;;;;67.80;41.55;;;179.90;2252.80;;;;;;5040893;28;20114;-76
2022/03/17 00:36:03;;;;;;;73.78;40.33;;;179.90;1945.60;;;;;;5040335;28;20037;-74
2022/03/17 00:38:29;;;;;;;65.93;40.97;;;179.90;1996.80;;;;;;5050128;28;20038;-75
2022/03/17 00:40:55;;;;;;;70.57;41.47;;;179.90;1971.20;;;;;;5039347;28;20051;-74
2022/03/17 00:43:22;;;;;;;74.18;43.92;;;179.90;2048.00;;;;;;5046947;28;20470;-75
2022/03/17 00:45:48;;;;;;;72.70;42.67;;;179.90;1996.80;;;;;;5051098;28;20377;-78
2022/03/17 00:48:14;;;;;;;70.88;43.00;;;179.80;2048.00;;;;;;5052270;28;20021;-75
2022/03/17 00:50:40;;;;;;;71.30;41.83;;;179.80;2048.00;;;;;;5045119;28;20413;-74
2022/03/17 00:53:06;;;;;;;77.57;43.22;;;179.80;2124.80;;;;;;5047291;28;20060;-75
2022/03/17 00:55:32;;;;;;;75.60;41.05;;;179.80;2099.20;;;;;;5052713;28;20033;-74
2022/03/17 00:57:58;;;;;;;68.85;42.47;;;179.80;2124.80;;;;;;5052237;28;20021;-76
2022/03/17 01:00:24;;;;;;;71.53;43.35;;;179.90;2124.80;;;;;;5052588;28;20135;-74
2022/03/17 01:02:56;;;;;;;69.90;40.60;;;179.90;2073.60;;;;;;5052139;28;20056;-75
2022/03/17 01:05:23;;;;;;;71.95;40.65;;;179.80;2099.20;;;;;;5052441;28;20017;-75
2022/03/17 01:07:53;;;;;;;71.07;40.65;;;179.80;2099.20;;;;;;5052189;28;20033;-76
2022/03/17 01:10:19;;;;;;;67.38;42.08;;;179.80;2150.40;;;;;;5052442;28;20478;-76
2022/03/17 01:12:47;;;;;;;69.43;42.60;;;179.80;2124.80;;;;;;5050864;28;20056;-76
2022/03/17 01:15:17;;;;;;;75.25;42.75;;;179.80;2150.40;;;;;;5050956;28;20029;-76
2022/03/17 01:17:43;;;;;;;71.65;40.72;;;179.80;2201.60;;;;;;5050904;28;20040;-76
2022/03/17 01:20:10;;;;;;;68.85;42.20;;;179.70;2150.40;;;;;;5050083;28;20036;-76
2022/03/17 01:22:36;;;;;;;67.85;40.10;;;179.70;2124.80;;;;;;5051008;28;20063;-77
2022/03/17 01:25:03;;;;;;;63.60;39.35;;;179.70;2150.40;;;;;;5052062;28;20028;-76
2022/03/17 01:27:29;;;;;;;62.63;39.72;;;179.70;2150.40;;;;;;5050801;28;20029;-75
2022/03/17 01:29:55;;;;;;;65.93;40.90;;;179.70;2201.60;;;;;;5050522;28;20044;-75
2022/03/17 01:32:22;;;;;;;70.32;43.53;;;179.70;2201.60;;;;;;5050114;28;20187;-75
2022/03/17 01:34:49;;;;;;;68.35;44.00;;;179.70;2201.60;;;;;;5051246;28;20512;-75
2022/03/17 01:37:15;;;;;;;68.72;41.70;;;179.70;2201.60;;;;;;5050324;28;20041;-75
2022/03/17 01:39:41;;;;;;;70.32;43.45;;;179.80;2150.40;;;;;;5052043;28;20386;-75
2022/03/17 01:42:09;;;;;;;74.47;45.15;;;179.80;2073.60;;;;;;5049872;28;20025;-76
2022/03/17 01:44:35;;;;;;;66.43;41.28;;;179.80;2048.00;;;;;;5050453;28;20075;-75
2022/03/17 01:49:46;;;;;;;67.45;42.80;;;179.80;2124.80;;;;;;5051749;28;20086;-75
2022/03/17 01:52:12;;;;;;;71.93;44.60;;;179.80;2099.20;;;;;;5050549;28;20033;-75
2022/03/17 01:54:39;;;;;;;71.63;45.25;;;179.80;2073.60;;;;;;5051287;28;20052;-75
2022/03/17 01:57:08;;;;;;;74.93;43.33;;;179.90;2124.80;;;;;;5051886;28;20090;-74
2022/03/17 01:59:36;;;;;;;70.30;42.65;;;179.90;2124.80;;;;;;5051448;28;20027;-74
2022/03/17 02:02:03;;;;;;;76.47;44.40;;;179.80;2099.20;;;;;;5050734;28;20486;-74
2022/03/17 02:04:29;;;;;;;82.72;44.83;;;179.80;2073.60;;;;;;5053825;28;20391;-74
2022/03/17 02:06:56;;;;;;;71.82;44.50;;;179.90;2099.20;;;;;;5055583;28;20033;-74
2022/03/17 02:09:26;;;;;;;72.30;44.60;;;179.90;2048.00;;;;;;5053823;28;20108;-74
2022/03/17 02:15:04;;;;;;;70.93;44.22;;;180.00;2048.00;;;;;;5056034;28;20051;-74
2022/03/17 02:17:31;;;;;;;70.03;44.25;;;179.90;1971.20;;;;;;5055469;28;20044;-74
2022/03/17 02:20:02;;;;;;;75.60;43.17;;;179.90;1945.60;;;;;;5054245;28;20037;-75
2022/03/17 02:22:29;;;;;;;72.93;44.17;;;179.80;2048.00;;;;;;5055303;28;20037;-75
2022/03/17 02:27:54;;;;;;;68.00;43.35;;;179.80;2124.80;;;;;;5052869;28;20064;-75
2022/03/17 02:30:22;;;;;;;72.70;42.75;;;179.90;2048.00;;;;;;5052715;28;20083;-74
2022/03/17 02:32:49;;;;;;;69.50;43.47;;;179.80;2022.40;;;;;;5035143;28;20045;-74
2022/03/17 02:35:19;;;;;;;71.75;45.88;;;179.80;2099.20;;;;;;5036371;28;20401;-74
2022/03/17 02:37:46;;;;;;;76.25;44.75;;;179.80;2073.60;;;;;;5035936;28;20039;-74
2022/03/17 02:40:12;;;;;;;66.90;41.50;;;179.80;2099.20;;;;;;5035899;28;20037;-74
2022/03/17 02:42:38;;;;;;;66.28;45.03;;;179.80;2099.20;;;;;;5035499;28;20075;-74
2022/03/17 02:45:07;;;;;;;75.88;46.10;;;179.80;2099.20;;;;;;5035820;28;20033;-74
2022/03/17 02:47:33;;;;;;;73.15;45.80;;;179.80;2099.20;;;;;;5052723;28;20100;-74
2022/03/17 02:49:59;;;;;;;75.13;46.55;;;179.80;2150.40;;;;;;5035678;28;20094;-74
2022/03/17 02:52:27;;;;;;;74.53;46.10;;;179.80;2073.60;;;;;;5052261;28;20449;-74
2022/03/17 02:54:53;;;;;;;68.97;43.53;;;179.90;2073.60;;;;;;5035743;28;20033;-74
2022/03/17 02:57:20;;;;;;;67.95;43.97;;;179.90;1996.80;;;;;;5035803;28;20041;-74
2022/03/17 02:59:48;;;;;;;66.03;42.08;;;179.90;1945.60;;;;;;5052370;28;20100;-74
2022/03/17 03:02:14;;;;;;;69.35;43.95;;;179.90;1894.40;;;;;;5035497;28;20529;-75
2022/03/17 03:04:40;;;;;;;64.30;44.13;;;179.90;2252.80;;;;;;5053907;28;20083;-74
2022/03/17 03:07:06;;;;;;;65.95;43.90;;;179.90;2252.80;;;;;;5053890;28;20029;-74
2022/03/17 03:09:33;;;;;;;72.63;46.55;;;179.80;1894.40;;;;;;5054722;28;20031;-74
2022/03/17 03:11:59;;;;;;;73.25;44.58;;;179.80;2022.40;;;;;;5054220;28;20029;-74
2022/03/17 03:14:26;;;;;;;66.57;44.60;;;179.80;1971.20;;;;;;5054197;28;20024;-75
2022/03/17 03:16:52;;;;;;;66.43;43.35;;;179.80;2048.00;;;;;;5052401;28;20029;-75
2022/03/17 03:19:18;;;;;;;70.90;44.03;;;179.80;2022.40;;;;;;5053652;28;20085;-74
2022/03/17 03:21:44;;;;;;;69.45;43.72;;;179.70;1894.40;;;;;;5052166;28;20890;-74
2022/03/17 03:24:10;;;;;;;70.78;46.15;;;179.90;1996.80;;;;;;5052755;28;20133;-74
2022/03/17 03:26:37;;;;;;;65.90;43.50;;;179.80;2252.80;;;;;;5052502;28;20041;-74
2022/03/17 03:31:49;;;;;;;68.60;43.38;;;179.90;2252.80;;;;;;5048047;28;20064;-74
2022/03/17 03:34:14;;;;;;;68.90;45.08;;;179.90;2252.80;;;;;;5042459;28;20041;-74
2022/03/17 03:39:24;;;;;;;67.20;43.53;;;179.90;2252.80;;;;;;5047861;28;20078;-74
2022/03/17 03:41:50;;;;;;;64.93;43.00;;;179.80;2252.80;;;;;;5043944;28;20025;-75
2022/03/17 03:44:17;;;;;;;66.50;41.45;;;179.80;2252.80;;;;;;5041208;28;20029;-73
2022/03/17 03:46:43;;;;;;;65.20;44.30;;;179.80;1868.80;;;;;;5042071;28;20025;-75
2022/03/17 03:49:09;;;;;;;69.75;41.90;;;179.90;2252.80;;;;;;5043875;28;20509;-76
2022/03/17 03:51:35;;;;;;;70.72;45.72;;;179.80;1868.80;;;;;;5044954;28;20100;-75
2022/03/17 03:54:13;;;;;;;66.65;42.63;;;179.90;1920.00;;;;;;5074856;28;20025;-75
2022/03/17 03:56:40;;;;;;;65.50;42.15;;;179.80;2252.80;;;;;;5041018;28;20487;-74
2022/03/17 03:59:18;;;;;;;66.20;43.53;;;179.90;1894.40;;;;;;5042116;28;20028;-74
2022/03/17 04:01:43;;;;;;;68.30;44.97;;;180.00;2252.80;;;;;;5042958;28;20016;-75
2022/03/17 04:04:11;;;;;;;64.88;42.15;;;179.90;2252.80;;;;;;5073402;28;20021;-73
2022/03/17 04:06:46;;;;;;;64.05;42.42;;;179.90;2252.80;;;;;;5077356;28;20047;-75
2022/03/17 04:09:13;;;;;;;64.95;41.60;;;179.90;2252.80;;;;;;5041161;28;20025;-73
2022/03/17 04:11:42;;;;;;;70.22;42.97;;;179.80;2252.80;;;;;;5047170;28;20049;-73
2022/03/17 04:14:09;;;;;;;69.97;44.67;;;179.90;2252.80;;;;;;5047639;28;20127;-73
2022/03/17 04:16:35;;;;;;;69.25;43.00;;;180.00;2252.80;;;;;;5053064;28;20025;-73
2022/03/17 04:19:01;;;;;;;66.32;41.53;;;180.00;2252.80;;;;;;5050338;28;20021;-73
2022/03/17 04:21:27;;;;;;;67.03;42.70;;;180.00;2252.80;;;;;;5041506;28;20089;-72
2022/03/17 04:23:53;;;;;;;70.57;44.75;;;180.00;2252.80;;;;;;5075136;28;20060;-72
2022/03/17 04:26:19;;;;;;;67.25;42.38;;;180.10;2252.80;;;;;;5032075;28;20474;-72
2022/03/17 04:28:45;;;;;;;63.00;40.58;;;180.00;2252.80;;;;;;5034043;28;20057;-72
2022/03/17 04:31:11;;;;;;;65.30;43.63;;;180.10;2252.80;;;;;;5049863;28;20082;-74
2022/03/17 04:33:37;;;;;;;64.03;41.58;;;180.10;2252.80;;;;;;5052612;28;20039;-72
2022/03/17 04:36:04;;;;;;;61.63;41.15;;;180.10;2252.80;;;;;;5051774;28;20119;-75
2022/03/17 04:38:29;;;;;;;55.78;39.20;;;180.00;2252.80;;;;;;5042717;28;20121;-73
2022/03/17 04:40:55;;;;;;;68.47;43.00;;;180.10;2252.80;;;;;;5032930;28;20461;-73
2022/03/17 04:43:21;;;;;;;63.10;41.65;;;204.80;2252.80;;;;;;5063371;28;20038;-73
2022/03/17 04:45:47;;;;;;;67.22;39.03;;;204.90;2252.80;;;;;;5063840;28;20033;-74
2022/03/17 04:48:14;;;;;;;61.92;41.80;;;204.90;2252.80;;;;;;5071115;28;20397;-73
2022/03/17 04:50:41;;;;;;;61.28;39.78;;;204.90;2252.80;;;;;;5051686;28;20029;-73
2022/03/17 04:55:52;;;;;;;59.50;40.15;;;204.90;2252.80;;;;;;5052153;28;20039;-73
2022/03/17 04:58:18;;;;;;;54.80;37.17;;;204.90;2252.80;;;;;;5049765;28;20033;-73
2022/03/17 05:00:44;;;;;;;59.63;37.90;;;204.90;2252.80;;;;;;5042019;28;20112;-73
2022/03/17 05:03:10;;;;;;;58.83;39.15;;;204.80;2252.80;;;;;;5031259;28;20034;-72
2022/03/17 05:05:36;;;;;;;57.45;38.88;;;180.10;2252.80;;;;;;5032316;28;20056;-72
2022/03/17 05:08:03;;;;;;;59.75;37.63;;;204.80;2252.80;;;;;;5032551;28;20060;-73
2022/03/17 05:10:29;;;;;;;54.60;39.47;;;204.80;2252.80;;;;;;5032042;28;20090;-76
2022/03/17 05:12:58;;;;;;;58.47;38.60;;;204.90;2252.80;;;;;;5064187;28;20040;-73
2022/03/17 05:15:24;;;;;;;60.67;39.05;;;204.90;2252.80;;;;;;5064570;28;20029;-73
2022/03/17 05:17:50;;;;;;;66.95;39.45;;;204.90;2252.80;;;;;;5066592;28;20043;-72
2022/03/17 05:20:17;;;;;;;56.30;38.78;;;204.90;2252.80;;;;;;5052258;28;20025;-73
2022/03/17 05:22:43;;;;;;;57.03;39.83;;;204.90;2252.80;;;;;;5050350;28;20124;-73
2022/03/17 05:25:11;;;;;;;59.70;39.38;;;205.00;2252.80;;;;;;5050964;28;20116;-73
2022/03/17 05:27:41;;;;;;;62.55;41.70;;;205.00;2252.80;;;;;;5050368;28;20033;-75
2022/03/17 05:30:09;;;;;;;67.63;45.75;;;205.00;2252.80;;;;;;5050171;28;20033;-73
2022/03/17 05:32:35;;;;;;;73.55;44.22;;;205.00;2252.80;;;;;;5063495;28;20050;-76
2022/03/17 05:35:01;;;;;;;63.22;42.80;;;205.10;2252.80;;;;;;5063759;28;20079;-73
2022/03/17 05:37:27;;;;;;;67.15;43.47;;;205.00;2252.80;;;;;;5032074;28;20025;-73
2022/03/17 05:39:53;;;;;;;65.40;44.38;;;205.10;2252.80;;;;;;5063901;28;20475;-74
2022/03/17 05:42:19;;;;;;;64.22;45.22;;;205.10;2252.80;;;;;;5063315;28;20543;-73
2022/03/17 05:44:44;;;;;;;77.57;50.70;;;205.00;2252.80;;;;;;5063368;28;20033;-73
2022/03/17 05:47:10;;;;;;;67.63;44.22;;;205.00;2252.80;;;;;;5064009;28;20030;-74
2022/03/17 05:49:36;;;;;;;72.28;45.88;;;204.90;2252.80;;;;;;5081293;28;20025;-73
2022/03/17 05:52:03;;;;;;;70.40;45.10;;;204.90;2252.80;;;;;;5051419;28;20531;-72
2022/03/17 05:54:28;;;;;;;72.85;45.42;;;204.90;2252.80;;;;;;5036844;28;20434;-76
2022/03/17 05:56:54;;;;;;;66.75;43.40;;;204.90;2252.80;;;;;;5077207;28;20065;-73
2022/03/17 05:59:20;;;;;;;72.25;46.92;;;204.90;2252.80;;;;;;5050915;28;20037;-73
2022/03/17 06:01:46;;;;;;;71.95;48.58;;;204.90;2252.80;;;;;;5051103;28;20486;-74
2022/03/17 06:04:12;;;;;;;75.72;49.92;;;204.90;2252.80;;;;;;5050299;28;20482;-73
2022/03/17 06:06:37;;;;;;;74.03;48.20;;;204.90;2252.80;;;;;;5045486;28;20546;-73
2022/03/17 06:09:03;;;;;;;66.30;47.63;;;204.90;2252.80;;;;;;5030487;28;20041;-73
2022/03/17 06:11:29;;;;;;;61.03;44.50;;;204.90;2252.80;;;;;;5033180;28;20402;-73
2022/03/17 06:13:56;;;;;;;68.75;46.40;;;204.90;2252.80;;;;;;5042825;28;20036;-74
2022/03/17 06:16:23;;;;;;;71.60;49.03;;;204.90;2252.80;;;;;;5041358;28;20087;-73
2022/03/17 06:18:49;;;;;;;65.95;45.75;;;204.90;2252.80;;;;;;5042885;28;20025;-75
2022/03/17 06:21:15;;;;;;;71.22;45.83;;;204.90;2252.80;;;;;;5049924;28;20542;-75
2022/03/17 06:23:43;;;;;;;95.97;57.50;;;204.90;2252.80;;;;;;5049257;28;20041;-75
2022/03/17 06:26:08;;;;;;;105.82;63.50;;;204.90;2252.80;;;;;;5071920;28;20037;-73
2022/03/17 06:28:35;;;;;;;97.20;60.08;;;204.90;2252.80;;;;;;5031479;28;20014;-75
2022/03/17 06:31:01;;;;;;;104.90;57.97;;;205.00;2252.80;;;;;;5038651;28;20048;-76
2022/03/17 06:33:29;;;;;;;96.57;60.40;;;205.00;2252.80;;;;;;5048698;28;20029;-74
2022/03/17 06:35:55;;;;;;;85.50;56.45;;;205.10;2252.80;;;;;;5063401;28;20433;-74
2022/03/17 06:38:21;;;;;;;88.80;54.70;;;205.10;2252.80;;;;;;5029826;28;20061;-73
2022/03/17 06:40:47;;;;;;;89.13;54.50;;;205.20;2252.80;;;;;;5031454;28;20056;-75
2022/03/17 06:43:14;;;;;;;92.70;55.83;;;205.20;2252.80;;;;;;5065395;28;20025;-75
2022/03/17 06:45:41;;;;;;;103.80;58.97;;;205.20;2252.80;;;;;;5044780;28;20387;-75
2022/03/17 06:48:07;;;;;;;93.50;56.08;;;205.00;2252.80;;;;;;5033701;28;20017;-75
2022/03/17 06:50:33;;;;;;;101.78;60.13;;;205.00;2252.80;;;;;;5032225;28;20489;-76
2022/03/17 06:52:59;;;;;;;84.00;49.25;;;205.00;2252.80;;;;;;5042604;28;20034;-75
2022/03/17 06:55:25;;;;;;;79.75;49.10;;;205.10;2252.80;;;;;;5048869;28;20052;-75
2022/03/17 06:57:51;;;;;;;75.72;45.72;;;204.90;2252.80;;;;;;5042500;28;20071;-74
2022/03/17 07:00:18;;;;;;;74.28;46.08;;;204.90;2252.80;;;;;;5042246;28;20025;-75
2022/03/17 07:02:46;;;;;;;76.43;45.53;;;205.00;2252.80;;;;;;5045854;28;20525;-75
2022/03/17 07:05:12;;;;;;;85.45;51.75;;;205.00;2252.80;;;;;;5050161;28;20049;-75
2022/03/17 07:07:38;;;;;;;73.53;48.45;;;204.90;2252.80;;;;;;5050385;28;20033;-75
2022/03/17 07:10:06;;;;;;;90.32;51.60;;;204.90;2252.80;;;;;;5042298;28;20048;-77
2022/03/17 07:12:35;;;;;;;74.25;47.28;;;204.90;2252.80;;;;;;5043860;28;20554;-75
2022/03/17 07:15:01;;;;;;;86.30;48.13;;;204.90;2252.80;;;;;;5047207;28;20029;-74
2022/03/17 07:17:39;;;;;;;67.65;43.45;;;204.90;2252.80;;;;;;5043745;28;20036;-76
2022/03/17 07:20:16;;;;;;;70.32;41.60;;;204.90;2252.80;;;;;;5042671;28;20049;-76
2022/03/17 07:22:44;;;;;;;58.63;35.40;;;204.90;2252.80;;;;;;5042114;28;20033;-75
2022/03/17 07:25:11;;;;;;;54.67;34.20;;;205.00;2252.80;;;;;;5073422;28;20410;-76
2022/03/17 07:27:40;;;;;;;57.70;34.30;;;205.00;2252.80;;;;;;5043545;28;20221;-76
2022/03/17 07:30:08;;;;;;;49.83;33.08;;;205.10;2252.80;;;;;;5044796;28;20497;-75
2022/03/17 07:32:33;;;;;;;53.72;32.65;;;205.20;2252.80;;;;;;5039802;28;20140;-75
2022/03/17 07:34:59;;;;;;;56.95;33.25;;;205.30;2252.80;;;;;;5073102;28;20179;-75
2022/03/17 07:37:25;;;;;;;55.78;31.83;;;205.40;2252.80;;;;;;5043212;28;20025;-74
2022/03/17 07:39:50;;;;;;;54.50;32.95;;;205.40;2252.80;;;;;;5076770;28;20129;-75
2022/03/17 07:42:16;;;;;;;52.63;35.05;;;205.40;2252.80;;;;;;5044836;28;20029;-75
2022/03/17 07:44:42;;;;;;;56.53;34.58;;;205.50;2252.80;;;;;;5045559;28;20378;-76
2022/03/17 07:47:08;;;;;;;60.35;35.67;;;205.50;2252.80;;;;;;5045562;28;20026;-75
2022/03/17 07:49:36;;;;;;;54.65;34.83;;;205.70;2252.80;;;;;;5041661;28;20068;-80
2022/03/17 07:52:02;;;;;;;62.15;37.67;;;230.40;2099.20;;;;;;5043647;28;20044;-75
2022/03/17 07:54:27;;;;;;;59.55;35.60;;;230.40;2252.80;;;;;;5046066;28;20049;-75
2022/03/17 07:56:54;;;;;;;62.03;38.35;;;230.40;2252.80;;;;;;5041655;28;20029;-75
2022/03/17 07:59:20;;;;;;;54.25;30.58;;;230.50;2252.80;;;;;;5074735;28;20036;-75
2022/03/17 08:01:46;;;;;;;47.33;29.73;;;230.50;2252.80;;;;;;5042411;28;20080;-75
2022/03/17 08:04:11;;;;;;;47.75;28.90;;;230.50;2252.80;;;;;;5046729;28;20053;-75
2022/03/17 08:06:37;;;;;;;47.90;29.63;;;230.50;2252.80;;;;;;5044410;28;20672;-75
2022/03/17 08:09:03;;;;;;;44.63;27.73;;;230.70;2252.80;;;;;;5039371;28;20021;-77
2022/03/17 08:11:29;;;;;;;46.92;28.20;;;230.70;2252.80;;;;;;5078434;28;20036;-74
2022/03/17 08:13:55;;;;;;;47.22;29.70;;;230.60;2252.80;;;;;;5042548;28;20030;-74
2022/03/17 08:16:21;;;;;;;39.22;24.33;;;230.70;2252.80;;;;;;5043895;28;20065;-74
2022/03/17 08:18:48;;;;;;;37.35;24.67;;;230.70;2252.80;;;;;;5040418;28;20038;-74
2022/03/17 08:21:14;;;;;;;32.65;20.27;;;230.60;2252.80;;;;;;5042303;28;20394;-75
2022/03/17 08:23:39;;;;;;;30.05;20.02;;;230.60;2252.80;;;;;;5046626;28;20537;-75
2022/03/17 08:26:05;;;;;;;31.58;19.45;;;230.70;2252.80;;;;;;5041352;28;20029;-75
2022/03/17 08:28:31;;;;;;;32.97;20.85;;;230.70;2252.80;;;;;;5041004;28;20443;-74
2022/03/17 08:30:57;;;;;;;33.28;20.77;;;230.80;2252.80;;;;;;5044492;28;20024;-75
2022/03/17 08:33:23;;;;;;;27.05;20.58;;;230.90;2252.80;;;;;;5043385;28;20090;-75
2022/03/17 08:35:50;;;;;;;33.60;24.30;;;230.80;2252.80;;;;;;5044902;28;20053;-76
2022/03/17 08:38:16;;;;;;;27.83;18.77;;;230.90;2252.80;;;;;;5042735;28;20388;-74
2022/03/17 08:40:42;;;;;;;23.13;16.38;;;230.80;2252.80;;;;;;5048640;28;20529;-74
2022/03/17 08:43:08;;;;;;;22.92;17.58;;;230.80;2252.80;;;;;;5049222;28;20032;-74
2022/03/17 08:51:04;;;;;;;26.05;20.55;;;230.70;2252.80;;;;;;5046423;28;20108;-73
2022/03/17 08:53:29;;;;;;;25.98;18.80;;;230.70;2252.80;;;;;;5071273;28;20111;-74
2022/03/17 08:55:55;;;;;;;22.05;18.13;;;230.70;2252.80;;;;;;5039286;28;20482;-74
2022/03/17 08:58:23;;;;;;;20.80;17.10;;;230.80;2252.80;;;;;;5046029;28;20613;-73
2022/03/17 09:00:49;;;;;;;21.05;16.38;;;230.70;2252.80;;;;;;5045969;28;20462;-73
2022/03/17 09:03:15;;;;;;;26.80;17.83;;;230.70;2252.80;;;;;;5056188;28;20037;-74
2022/03/17 09:05:41;;;;;;;24.10;18.70;;;230.70;2252.80;;;;;;5066637;28;20029;-75
2022/03/17 09:08:08;;;;;;;25.10;19.00;;;230.80;2252.80;;;;;;5041537;28;20044;-75
2022/03/17 09:10:35;;;;;;;23.25;17.40;;;230.90;2252.80;;;;;;5038686;28;20072;-75
2022/03/17 09:13:07;;;;;;;24.52;19.63;;;231.10;2252.80;;;;;;5044775;28;20025;-75
2022/03/17 09:15:41;;;;;;;27.25;19.60;;;231.30;2252.80;;;;;;5031979;28;20079;-75
2022/03/17 09:18:09;;;;;;;32.80;22.75;;;256.10;2252.80;;;;;;5035134;28;20047;-75
2022/03/17 09:20:36;;;;;;;25.25;19.80;;;256.30;2252.80;;;;;;5030542;28;20029;-75
2022/03/17 09:23:02;;;;;;;29.33;18.85;;;256.60;2252.80;;;;;;5063527;28;20095;-75
2022/03/17 09:25:29;;;;;;;27.17;19.73;;;256.80;2252.80;;;;;;5065921;28;20029;-76
2022/03/17 09:27:55;;;;;;;25.67;19.40;;;256.70;2252.80;;;;;;5031809;28;20079;-76
2022/03/17 09:30:22;;;;;;;26.33;20.08;;;256.90;2252.80;;;;;;5041008;28;20037;-76
2022/03/17 09:32:52;;;;;;;31.60;21.25;;;281.60;2278.40;;;;;;5050345;28;20106;-75
2022/03/17 09:35:18;;;;;;;26.08;19.33;;;281.60;2278.40;;;;;;5068010;28;20040;-76
2022/03/17 09:37:45;;;;;;;23.05;18.63;;;281.90;2278.40;;;;;;5068980;28;20034;-76
2022/03/17 09:40:11;;;;;;;23.25;18.45;;;282.00;2278.40;;;;;;5035240;28;20027;-75
2022/03/17 09:42:38;;;;;;;27.58;20.95;;;282.30;2278.40;;;;;;5048497;28;20025;-75
2022/03/17 09:45:06;;;;;;;26.73;18.38;;;282.50;2278.40;;;;;;5045188;28;20466;-76
2022/03/17 09:47:36;;;;;;;28.13;19.45;;;282.30;2278.40;;;;;;5030315;28;20037;-76
2022/03/17 09:50:03;;;;;;;26.38;19.27;;;282.40;2278.40;;;;;;5033206;28;20435;-77
2022/03/17 09:52:31;;;;;;;26.20;19.00;;;282.30;2278.40;;;;;;5073239;28;20512;-76
2022/03/17 09:54:57;;;;;;;25.60;17.95;;;282.50;2278.40;;;;;;5049160;28;20033;-76
2022/03/17 09:57:23;;;;;;;27.13;18.02;;;307.20;2304.00;;;;;;5045942;28;20044;-76
2022/03/17 09:59:56;;;;;;;25.83;19.45;;;307.30;2304.00;;;;;;5044394;28;20064;-77
2022/03/17 10:02:22;;;;;;;22.38;17.17;;;307.30;2304.00;;;;;;5040388;28;20025;-75
2022/03/17 10:04:48;;;;;;;26.52;19.80;;;307.20;2304.00;;;;;;5048069;28;20036;-76
2022/03/17 10:07:20;;;;;;;28.10;19.42;;;282.50;2278.40;;;;;;5071672;28;20443;-76
2022/03/17 10:09:47;;;;;;;22.95;16.83;;;307.20;2304.00;;;;;;5069494;28;20501;-77
2022/03/17 10:12:14;;;;;;;25.02;17.15;;;307.30;2304.00;;;;;;5074253;28;20029;-76
2022/03/17 10:14:49;;;;;;;23.85;16.40;;;307.40;2304.00;;;;;;5040035;28;20079;-75
2022/03/17 10:17:35;;;;;;;22.02;14.57;;;307.50;2304.00;;;;;;5051012;28;20447;-76
2022/03/17 10:20:25;;;;;;;19.15;14.38;;;307.70;2304.00;;;;;;5049994;28;20428;-76
2022/03/17 10:22:56;;;;;;;18.42;14.13;;;307.90;2304.00;;;;;;5050621;28;20029;-76
2022/03/17 10:25:27;;;;;;;19.10;14.30;;;307.90;2304.00;;;;;;5042967;28;20083;-76
2022/03/17 10:27:56;;;;;;;19.73;14.77;;;308.00;2304.00;;;;;;5041115;28;20013;-77
2022/03/17 10:30:34;;;;;;;20.30;13.80;;;308.00;2304.00;;;;;;5053697;28;20100;-77
2022/03/17 10:33:15;;;;;;;21.70;14.80;;;307.80;2304.00;;;;;;5041766;28;20118;-78
2022/03/17 10:35:49;;;;;;;18.70;13.52;;;307.70;2304.00;;;;;;5043508;28;20567;-77
2022/03/17 10:38:20;;;;;;;23.05;14.68;;;307.60;2304.00;;;;;;5042884;28;20123;-77
2022/03/17 10:41:03;;;;;;;19.92;14.73;;;307.40;2304.00;;;;;;5051958;28;20096;-77
2022/03/17 10:43:29;;;;;;;17.77;14.73;;;307.70;2304.00;;;;;;5041336;28;20034;-78
2022/03/17 10:46:16;;;;;;;20.55;13.40;;;307.90;2304.00;;;;;;5045323;28;20486;-77
2022/03/17 10:48:59;;;;;;;16.10;10.88;;;308.00;2304.00;;;;;;5046738;28;20057;-77
2022/03/17 10:51:33;;;;;;;21.23;13.18;;;332.80;2329.60;;;;;;5048455;28;20029;-77
2022/03/17 10:54:05;;;;;;;21.67;13.75;;;332.80;2329.60;;;;;;5047180;28;20030;-77
2022/03/17 10:56:31;;;;;;;17.00;12.32;;;308.10;2304.00;;;;;;5041747;28;20391;-77
2022/03/17 10:58:59;;;;;;;15.10;11.07;;;332.80;2329.60;;;;;;5043978;28;20025;-76
2022/03/17 11:01:36;;;;;;;15.07;10.95;;;308.10;2304.00;;;;;;5046883;28;20033;-76
2022/03/17 11:04:03;;;;;;;17.35;12.40;;;308.10;2304.00;;;;;;5047018;28;20037;-76
2022/03/17 11:06:29;;;;;;;17.17;10.93;;;332.80;2329.60;;;;;;5075890;28;20029;-76
2022/03/17 11:09:00;;;;;;;17.77;11.23;;;308.00;2304.00;;;;;;5041431;28;20128;-76
2022/03/17 11:11:29;;;;;;;18.98;12.00;;;308.10;2304.00;;;;;;5045467;28;20083;-76
2022/03/17 11:13:58;;;;;;;16.88;11.77;;;332.90;2329.60;;;;;;5074077;28;20037;-77
2022/03/17 11:16:51;;;;;;;17.63;10.20;;;332.80;2329.60;;;;;;5044101;28;20052;-77
2022/03/17 11:19:19;;;;;;;16.23;10.90;;;308.00;2304.00;;;;;;5044606;28;20132;-77
2022/03/17 11:21:48;;;;;;;18.92;12.18;;;307.90;2304.00;;;;;;5040780;28;20033;-76
2022/03/17 11:24:22;;;;;;;21.10;14.63;;;307.70;2304.00;;;;;;5045666;28;20049;-76
2022/03/17 11:26:50;;;;;;;17.58;11.40;;;307.80;2304.00;;;;;;5041991;28;20518;-75
2022/03/17 11:29:18;;;;;;;17.27;11.60;;;307.70;2304.00;;;;;;5045085;28;20111;-75
2022/03/17 11:31:59;;;;;;;15.68;11.48;;;307.70;2304.00;;;;;;5048580;28;20049;-75
2022/03/17 11:34:37;;;;;;;14.50;10.68;;;307.70;2304.00;;;;;;5044390;28;20029;-75
2022/03/17 11:37:25;;;;;;;15.48;10.32;;;307.60;2304.00;;;;;;5041477;28;20485;-75
2022/03/17 11:40:09;;;;;;;16.50;10.60;;;307.40;2304.00;;;;;;5042693;28;20025;-76
2022/03/17 11:42:47;;;;;;;13.90;9.35;;;307.30;2304.00;;;;;;5043001;28;20385;-76
2022/03/17 11:45:13;;;;;;;11.65;8.45;;;282.50;2278.40;;;;;;5043655;28;20021;-76
2022/03/17 11:48:05;;;;;;;15.38;10.13;;;282.50;2278.40;;;;;;5038934;28;20025;-77
2022/03/17 11:50:42;;;;;;;26.00;16.08;;;282.40;2278.40;;;;;;5044492;28;20028;-76
2022/03/17 11:53:14;;;;;;;15.85;10.07;;;282.30;2278.40;;;;;;5079284;28;20029;-76
2022/03/17 11:55:46;;;;;;;14.68;9.90;;;282.20;2278.40;;;;;;5039333;28;20033;-76
2022/03/17 11:58:24;;;;;;;14.75;10.18;;;282.20;2278.40;;;;;;5064922;28;20030;-76
2022/03/17 12:00:52;;;;;;;13.27;8.57;;;282.20;2278.40;;;;;;5047521;28;20026;-77
2022/03/17 12:03:31;;;;;;;13.52;8.77;;;282.20;2278.40;;;;;;5051533;28;20029;-77
2022/03/17 12:06:21;;;;;;;15.82;10.55;;;282.20;2278.40;;;;;;5045484;28;20013;-76
2022/03/17 12:08:47;;;;;;;16.05;8.85;;;282.40;2278.40;;;;;;5043266;28;20044;-75
2022/03/17 12:11:14;;;;;;;13.00;8.50;;;282.30;2278.40;;;;;;5046854;28;20029;-76
2022/03/17 12:14:17;;;;;;;20.23;10.48;;;282.40;2278.40;;;;;;5045536;28;20038;-76
2022/03/17 12:16:54;;;;;;;14.00;9.50;;;282.30;2278.40;;;;;;5041883;28;20025;-77
2022/03/17 12:19:36;;;;;;;14.15;9.70;;;282.30;2278.40;;;;;;5047446;28;20021;-76
2022/03/17 12:22:13;;;;;;;17.10;10.65;;;282.30;2278.40;;;;;;5040721;28;20037;-76
2022/03/17 12:25:13;;;;;;;14.02;10.38;;;282.40;2278.40;;;;;;5043291;28;20053;-77
2022/03/17 12:27:40;;;;;;;15.23;9.60;;;282.30;2278.40;;;;;;5036768;28;20025;-76